Time,TemperatureF,DewpointF,PressureIn,WindDirection,WindDirectionDegrees,WindSpeedMPH,WindSpeedGustMPH,Humidity,HourlyPrecipIn,Conditions,Clouds,dailyrainin,SoftwareType,DateUTC
2013-04-30 00:05:00,52.0,42.0,30.25,ESE,119,0.0,0.0,70,0.00,,,0.00,weatherlink.com 1.10,2013-04-30 04:05:00,
2013-04-30 00:20:00,51.7,43.0,30.25,ESE,119,0.0,0.0,73,0.00,,,0.00,weatherlink.com 1.10,2013-04-30 04:20:00,
2013-04-30 00:35:00,51.4,43.0,30.25,ESE,119,0.0,0.0,72,0.00,,,0.00,weatherlink.com 1.10,2013-04-30 04:35:00,
2013-04-30 00:50:00,51.3,44.0,30.25,ESE,119,0.0,0.0,75,0.00,,,0.00,weatherlink.com 1.10,2013-04-30 04:50:00,
2013-04-30 01:05:00,51.0,44.0,30.25,ESE,119,0.0,0.0,76,0.00,,,0.00,weatherlink.com 1.10,2013-04-30 05:05:00,
2013-04-30 01:20:00,50.9,44.0,30.24,ESE,119,0.0,0.0,76,0.00,,,0.00,weatherlink.com 1.10,2013-04-30 05:20:00,
2013-04-30 01:35:00,50.7,44.0,30.24,ESE,119,0.0,0.0,77,0.00,,,0.00,weatherlink.com 1.10,2013-04-30 05:35:00,
2013-04-30 01:50:00,50.5,44.0,30.24,ESE,119,0.0,0.0,77,0.00,,,0.00,weatherlink.com 1.10,2013-04-30 05:50:00,
2013-04-30 02:05:00,50.5,44.0,30.24,ESE,119,0.0,1.0,78,0.00,,,0.00,weatherlink.com 1.10,2013-04-30 06:05:00,
2013-04-30 02:20:00,50.4,44.0,30.24,ESE,119,0.0,0.0,79,0.00,,,0.00,weatherlink.com 1.10,2013-04-30 06:20:00,
2013-04-30 02:35:00,50.2,44.0,30.24,ESE,119,0.0,0.0,80,0.00,,,0.00,weatherlink.com 1.10,2013-04-30 06:35:00,
2013-04-30 02:50:00,49.9,44.0,30.24,ESE,119,0.0,0.0,80,0.00,,,0.00,weatherlink.com 1.10,2013-04-30 06:50:00,
2013-04-30 03:06:00,49.6,44.0,30.24,ESE,119,0.0,0.0,81,0.00,,,0.00,weatherlink.com 1.10,2013-04-30 07:06:00,
2013-04-30 03:21:00,49.2,44.0,30.24,ESE,119,0.0,0.0,81,0.00,,,0.00,weatherlink.com 1.10,2013-04-30 07:21:00,
2013-04-30 03:36:00,49.1,44.0,30.24,ESE,119,0.0,0.0,83,0.00,,,0.00,weatherlink.com 1.10,2013-04-30 07:36:00,
2013-04-30 03:51:00,49.0,44.0,30.25,ESE,119,0.0,0.0,83,0.00,,,0.00,weatherlink.com 1.10,2013-04-30 07:51:00,
2013-04-30 04:06:00,49.1,44.0,30.25,ESE,119,0.0,0.0,83,0.00,,,0.00,weatherlink.com 1.10,2013-04-30 08:06:00,
2013-04-30 04:21:00,49.0,44.0,30.25,ESE,119,0.0,0.0,84,0.00,,,0.00,weatherlink.com 1.10,2013-04-30 08:21:00,
2013-04-30 04:36:00,49.0,44.0,30.25,ESE,119,0.0,0.0,83,0.00,,,0.00,weatherlink.com 1.10,2013-04-30 08:36:00,
2013-04-30 04:51:00,48.8,44.0,30.25,ESE,119,0.0,0.0,84,0.00,,,0.00,weatherlink.com 1.10,2013-04-30 08:51:00,
2013-04-30 05:06:00,48.8,44.0,30.25,ESE,119,0.0,0.0,83,0.00,,,0.00,weatherlink.com 1.10,2013-04-30 09:06:00,
2013-04-30 05:21:00,48.7,44.0,30.26,ESE,119,0.0,0.0,84,0.00,,,0.00,weatherlink.com 1.10,2013-04-30 09:21:00,
2013-04-30 05:36:00,48.6,44.0,30.26,ESE,119,0.0,0.0,84,0.00,,,0.00,weatherlink.com 1.10,2013-04-30 09:36:00,
2013-04-30 05:51:00,48.3,44.0,30.27,ESE,119,0.0,0.0,84,0.00,,,0.00,weatherlink.com 1.10,2013-04-30 09:51:00,
2013-04-30 06:06:00,48.0,44.0,30.27,ESE,119,0.0,0.0,85,0.00,,,0.00,weatherlink.com 1.10,2013-04-30 10:06:00,
2013-04-30 06:21:00,47.8,44.0,30.27,ESE,119,0.0,0.0,85,0.00,,,0.00,weatherlink.com 1.10,2013-04-30 10:21:00,
2013-04-30 06:36:00,48.1,44.0,30.28,ESE,119,0.0,0.0,86,0.00,,,0.00,weatherlink.com 1.10,2013-04-30 10:36:00,
2013-04-30 06:51:00,48.4,44.0,30.28,ESE,119,0.0,0.0,86,0.00,,,0.00,weatherlink.com 1.10,2013-04-30 10:51:00,
2013-04-30 07:06:00,49.1,45.0,30.29,ESE,119,0.0,1.0,85,0.00,,,0.00,weatherlink.com 1.10,2013-04-30 11:06:00,
2013-04-30 07:21:00,50.3,44.0,30.29,ESE,119,0.0,1.0,79,0.00,,,0.00,weatherlink.com 1.10,2013-04-30 11:21:00,
2013-04-30 07:36:00,51.8,44.0,30.30,South,185,0.0,4.0,75,0.00,,,0.00,weatherlink.com 1.10,2013-04-30 11:36:00,
2013-04-30 07:51:00,52.5,44.0,30.30,ESE,119,1.0,3.0,72,0.00,,,0.00,weatherlink.com 1.10,2013-04-30 11:51:00,
2013-04-30 08:06:00,53.2,44.0,30.30,SSE,163,4.0,4.0,72,0.00,,,0.00,weatherlink.com 1.10,2013-04-30 12:06:00,
2013-04-30 08:21:00,54.0,45.0,30.30,NW,325,3.0,3.0,72,0.00,,,0.00,weatherlink.com 1.10,2013-04-30 12:21:00,
2013-04-30 08:36:00,54.8,45.0,30.31,WSW,252,1.0,4.0,69,0.00,,,0.00,weatherlink.com 1.10,2013-04-30 12:36:00,
2013-04-30 08:51:00,55.4,44.0,30.31,East,92,0.0,5.0,66,0.00,,,0.00,weatherlink.com 1.10,2013-04-30 12:51:00,
2013-04-30 09:06:00,55.8,44.0,30.31,South,183,0.0,4.0,65,0.00,,,0.00,weatherlink.com 1.10,2013-04-30 13:06:00,
2013-04-30 09:21:00,56.3,44.0,30.32,ESE,123,0.0,4.0,64,0.00,,,0.00,weatherlink.com 1.10,2013-04-30 13:21:00,
2013-04-30 09:36:00,57.3,42.0,30.32,SSW,213,4.0,6.0,57,0.00,,,0.00,weatherlink.com 1.10,2013-04-30 13:36:00,
2013-04-30 09:51:00,58.0,40.0,30.32,ESE,113,0.0,4.0,52,0.00,,,0.00,weatherlink.com 1.10,2013-04-30 13:51:00,
2013-04-30 10:06:00,58.9,38.0,30.32,SE,126,1.0,5.0,47,0.00,,,0.00,weatherlink.com 1.10,2013-04-30 14:06:00,
2013-04-30 10:22:00,59.8,38.0,30.32,SW,236,4.0,4.0,45,0.00,,,0.00,weatherlink.com 1.10,2013-04-30 14:22:00,
2013-04-30 10:37:00,60.2,37.0,30.32,WSW,241,2.0,7.0,42,0.00,,,0.00,weatherlink.com 1.10,2013-04-30 14:37:00,
2013-04-30 10:52:00,61.4,39.0,30.32,SW,230,3.0,8.0,44,0.00,,,0.00,weatherlink.com 1.10,2013-04-30 14:52:00,
2013-04-30 11:07:00,62.1,38.0,30.32,SW,223,4.0,6.0,41,0.00,,,0.00,weatherlink.com 1.10,2013-04-30 15:07:00,
2013-04-30 11:22:00,63.0,34.0,30.31,WSW,246,3.0,9.0,34,0.00,,,0.00,weatherlink.com 1.10,2013-04-30 15:22:00,
2013-04-30 11:37:00,64.0,34.0,30.31,SSE,157,1.0,7.0,33,0.00,,,0.00,weatherlink.com 1.10,2013-04-30 15:37:00,
2013-04-30 11:52:00,65.2,35.0,30.31,South,187,3.0,4.0,33,0.00,,,0.00,weatherlink.com 1.10,2013-04-30 15:52:00,
2013-04-30 12:07:00,65.7,32.0,30.31,SW,227,6.0,10.0,29,0.00,,,0.00,weatherlink.com 1.10,2013-04-30 16:07:00,
2013-04-30 12:22:00,66.1,37.0,30.30,NW,325,3.0,7.0,34,0.00,,,0.00,weatherlink.com 1.10,2013-04-30 16:22:00,
2013-04-30 12:37:00,67.1,36.0,30.30,SSW,198,0.0,6.0,32,0.00,,,0.00,weatherlink.com 1.10,2013-04-30 16:37:00,
2013-04-30 12:52:00,66.6,36.0,30.30,SSW,211,2.0,7.0,33,0.00,,,0.00,weatherlink.com 1.10,2013-04-30 16:52:00,
2013-04-30 13:07:00,67.0,32.0,30.30,East,97,2.0,7.0,27,0.00,,,0.00,weatherlink.com 1.10,2013-04-30 17:07:00,
2013-04-30 13:22:00,67.7,33.0,30.29,SSE,162,0.0,9.0,28,0.00,,,0.00,weatherlink.com 1.10,2013-04-30 17:22:00,
2013-04-30 13:37:00,67.4,33.0,30.29,ENE,70,2.0,8.0,28,0.00,,,0.00,weatherlink.com 1.10,2013-04-30 17:37:00,
2013-04-30 13:52:00,68.0,34.0,30.29,East,84,0.0,8.0,28,0.00,,,0.00,weatherlink.com 1.10,2013-04-30 17:52:00,
2013-04-30 14:07:00,67.7,30.0,30.29,SSW,194,3.0,9.0,24,0.00,,,0.00,weatherlink.com 1.10,2013-04-30 18:07:00,
2013-04-30 14:22:00,67.7,30.0,30.29,SE,126,3.0,7.0,24,0.00,,,0.00,weatherlink.com 1.10,2013-04-30 18:22:00,
2013-04-30 14:37:00,68.1,31.0,30.29,SW,217,3.0,7.0,25,0.00,,,0.00,weatherlink.com 1.10,2013-04-30 18:37:00,
2013-04-30 14:52:00,68.0,30.0,30.29,SW,236,2.0,11.0,24,0.00,,,0.00,weatherlink.com 1.10,2013-04-30 18:52:00,
2013-04-30 15:07:00,67.9,31.0,30.29,SW,225,0.0,9.0,25,0.00,,,0.00,weatherlink.com 1.10,2013-04-30 19:07:00,
2013-04-30 15:22:00,67.9,31.0,30.29,SE,125,3.0,4.0,25,0.00,,,0.00,weatherlink.com 1.10,2013-04-30 19:22:00,
2013-04-30 15:37:00,67.3,34.0,30.29,WSW,249,7.0,8.0,29,0.00,,,0.00,weatherlink.com 1.10,2013-04-30 19:37:00,
2013-04-30 15:52:00,67.7,35.0,30.29,WSW,240,8.0,9.0,30,0.00,,,0.00,weatherlink.com 1.10,2013-04-30 19:52:00,
2013-04-30 16:07:00,67.8,33.0,30.29,East,92,1.0,9.0,28,0.00,,,0.00,weatherlink.com 1.10,2013-04-30 20:07:00,
2013-04-30 16:22:00,67.6,38.0,30.29,WNW,288,3.0,8.0,34,0.00,,,0.00,weatherlink.com 1.10,2013-04-30 20:22:00,
2013-04-30 16:37:00,67.9,33.0,30.30,SE,144,1.0,6.0,28,0.00,,,0.00,weatherlink.com 1.10,2013-04-30 20:37:00,
2013-04-30 16:52:00,67.7,34.0,30.30,SSW,209,0.0,11.0,29,0.00,,,0.00,weatherlink.com 1.10,2013-04-30 20:52:00,
2013-04-30 17:07:00,67.4,33.0,30.30,WNW,288,2.0,8.0,28,0.00,,,0.00,weatherlink.com 1.10,2013-04-30 21:07:00,
2013-04-30 17:22:00,66.8,33.0,30.30,South,191,2.0,4.0,29,0.00,,,0.00,weatherlink.com 1.10,2013-04-30 21:22:00,
2013-04-30 17:37:00,66.6,31.0,30.30,SE,142,2.0,7.0,26,0.00,,,0.00,weatherlink.com 1.10,2013-04-30 21:37:00,
2013-04-30 17:52:00,66.5,34.0,30.30,SW,229,1.0,6.0,30,0.00,,,0.00,weatherlink.com 1.10,2013-04-30 21:52:00,
2013-04-30 18:07:00,66.5,30.0,30.30,South,180,0.0,5.0,26,0.00,,,0.00,weatherlink.com 1.10,2013-04-30 22:07:00,
2013-04-30 18:22:00,65.9,30.0,30.30,SW,227,0.0,7.0,26,0.00,,,0.00,weatherlink.com 1.10,2013-04-30 22:22:00,
2013-04-30 18:37:00,65.5,31.0,30.31,East,84,0.0,5.0,28,0.00,,,0.00,weatherlink.com 1.10,2013-04-30 22:37:00,
2013-04-30 18:52:00,64.8,30.0,30.30,South,180,1.0,5.0,27,0.00,,,0.00,weatherlink.com 1.10,2013-04-30 22:52:00,
2013-04-30 19:07:00,63.1,31.0,30.31,WSW,244,0.0,2.0,30,0.00,,,0.00,weatherlink.com 1.10,2013-04-30 23:07:00,
2013-04-30 19:22:00,61.7,33.0,30.31,East,93,1.0,3.0,34,0.00,,,0.00,weatherlink.com 1.10,2013-04-30 23:22:00,
2013-04-30 19:37:00,60.2,34.0,30.31,East,93,0.0,1.0,37,0.00,,,0.00,weatherlink.com 1.10,2013-04-30 23:37:00,
2013-04-30 19:52:00,58.7,32.0,30.31,ESE,109,0.0,2.0,37,0.00,,,0.00,weatherlink.com 1.10,2013-04-30 23:52:00,
2013-04-30 20:07:00,57.3,34.0,30.32,ESE,109,1.0,1.0,41,0.00,,,0.00,weatherlink.com 1.10,2013-05-01 00:07:00,
2013-04-30 20:22:00,56.6,32.0,30.32,ESE,109,0.0,2.0,39,0.00,,,0.00,weatherlink.com 1.10,2013-05-01 00:22:00,
2013-04-30 20:37:00,55.9,33.0,30.32,ESE,109,0.0,1.0,42,0.00,,,0.00,weatherlink.com 1.10,2013-05-01 00:37:00,
2013-04-30 20:52:00,55.0,31.0,30.33,ESE,109,0.0,1.0,41,0.00,,,0.00,weatherlink.com 1.10,2013-05-01 00:52:00,
2013-04-30 21:07:00,54.4,33.0,30.33,ESE,109,0.0,1.0,45,0.00,,,0.00,weatherlink.com 1.10,2013-05-01 01:07:00,
2013-04-30 21:22:00,53.6,34.0,30.34,ESE,109,0.0,0.0,48,0.00,,,0.00,weatherlink.com 1.10,2013-05-01 01:22:00,
2013-04-30 21:37:00,52.8,32.0,30.34,ESE,109,0.0,0.0,45,0.00,,,0.00,weatherlink.com 1.10,2013-05-01 01:37:00,
2013-04-30 21:52:00,51.8,34.0,30.34,ESE,109,0.0,1.0,50,0.00,,,0.00,weatherlink.com 1.10,2013-05-01 01:52:00,
2013-04-30 22:08:00,50.8,34.0,30.35,ESE,109,0.0,2.0,54,0.00,,,0.00,weatherlink.com 1.10,2013-05-01 02:08:00,
2013-04-30 22:23:00,49.9,35.0,30.35,ESE,109,0.0,0.0,58,0.00,,,0.00,weatherlink.com 1.10,2013-05-01 02:23:00,
2013-04-30 22:38:00,49.3,35.0,30.35,ESE,109,0.0,0.0,59,0.00,,,0.00,weatherlink.com 1.10,2013-05-01 02:38:00,
2013-04-30 22:53:00,48.7,34.0,30.34,ESE,109,0.0,0.0,58,0.00,,,0.00,weatherlink.com 1.10,2013-05-01 02:53:00,
2013-04-30 23:08:00,48.1,35.0,30.35,ESE,109,0.0,0.0,60,0.00,,,0.00,weatherlink.com 1.10,2013-05-01 03:08:00,
2013-04-30 23:23:00,47.6,35.0,30.35,ESE,109,0.0,0.0,63,0.00,,,0.00,weatherlink.com 1.10,2013-05-01 03:23:00,
2013-04-30 23:38:00,46.9,35.0,30.35,ESE,109,0.0,0.0,63,0.00,,,0.00,weatherlink.com 1.10,2013-05-01 03:38:00,
2013-04-30 23:53:00,46.2,34.0,30.35,ESE,109,0.0,0.0,62,0.00,,,0.00,weatherlink.com 1.10,2013-05-01 03:53:00,